Maersk Magellan — 9V6751 — position and weather

sailwx.info

Track history (hours):
 
Tides and Currents Weather Stations Pressure Air Temp Water Temp Dewpoint Dewpoint Depression Visibility Wind Speed Wind Dir Waves Ship Positions

Maersk Magellan

Last reported at 2015-May-02 23:33 UTC. Time now 2015-May-05 08:13 UTC.
Position N 01°17' E 103°44'.

Length 183 m; draft 9.8 m.

Type: Ship (hazmat cat D). MMSI: 566549000.

Date/timePositionNaut miles runAvg speedWind from/ knotsBaromVisibWave heightAir tempDewpointWater temp
2015-May-02 23:33N 01°17' E 103°44'4 4.1
2015-May-02 22:33N 01°14' E 103°47'2 1.9
2015-May-02 21:16N 01°13' E 103°49'0 0.0
2015-May-02 20:22N 01°13' E 103°49'0 0.0
2015-May-02 19:31N 01°13' E 103°49'0 0.0
2015-May-02 18:10N 01°13' E 103°49'0 0.1
2015-May-02 17:23N 01°13' E 103°49'3 3.2
2015-May-02 16:25N 01°13' E 103°52'910.5
2015-May-02 15:33N 01°16' E 104°01'6 5.6
2015-May-02 14:31N 01°17' E 104°06'5 5.5
2015-May-02 13:33N 01°18' E 104°12'  
2015-Apr-28 12:17N 01°16' E 104°12'811.2
2015-Apr-28 11:32N 01°20' E 104°04'13 9.7
2015-Apr-28 10:12N 01°26' E 103°53'1 0.0
2015-Apr-26 17:29N 01°27' E 103°52'1010.5
2015-Apr-26 16:33N 01°23' E 104°01'6 5.9
2015-Apr-26 15:33N 01°17' E 104°01'1110.5
2015-Apr-26 14:29N 01°12' E 103°51'3 2.3
2015-Apr-26 13:19N 01°13' E 103°49'0 0.2
2015-Apr-26 12:22N 01°13' E 103°49'0 0.0
2015-Apr-26 11:28N 01°13' E 103°49'0 0.1
2015-Apr-26 10:19N 01°13' E 103°49'0 0.1
2015-Apr-26 09:22N 01°13' E 103°49'0 0.1
2015-Apr-26 08:28N 01°13' E 103°49'0 0.1
2015-Apr-26 07:28N 01°13' E 103°49'0 0.1
2015-Apr-26 05:28N 01°13' E 103°49'0 0.0
2015-Apr-26 04:22N 01°13' E 103°49'4 4.1
2015-Apr-26 03:29N 01°13' E 103°52'9 9.4
2015-Apr-26 02:33N 01°16' E 104°01'10 9.7
2015-Apr-26 01:33N 01°17' E 104°10'  
Track history (hours):
 
Tides and Currents Weather Stations Pressure Air Temp Water Temp Dewpoint Dewpoint Depression Visibility Wind Speed Wind Dir Waves Ship Positions

Maersk Magellan

Last reported at 2015-May-02 23:33 UTC. Time now 2015-May-05 08:13 UTC.
Position N 01°17' E 103°44'.

Length 183 m; draft 9.8 m.

Type: Ship (hazmat cat D). MMSI: 566549000.

Date/timePositionNaut miles runAvg speedWind from/ knotsBaromVisibWave heightAir tempDewpointWater temp
2015-May-02 23:33N 01°17' E 103°44'4 4.1
2015-May-02 22:33N 01°14' E 103°47'2 1.9
2015-May-02 21:16N 01°13' E 103°49'0 0.0
2015-May-02 20:22N 01°13' E 103°49'0 0.0
2015-May-02 19:31N 01°13' E 103°49'0 0.0
2015-May-02 18:10N 01°13' E 103°49'0 0.1
2015-May-02 17:23N 01°13' E 103°49'3 3.2
2015-May-02 16:25N 01°13' E 103°52'910.5
2015-May-02 15:33N 01°16' E 104°01'6 5.6
2015-May-02 14:31N 01°17' E 104°06'5 5.5
2015-May-02 13:33N 01°18' E 104°12'  
2015-Apr-28 12:17N 01°16' E 104°12'811.2
2015-Apr-28 11:32N 01°20' E 104°04'13 9.7
2015-Apr-28 10:12N 01°26' E 103°53'1 0.0
2015-Apr-26 17:29N 01°27' E 103°52'1010.5
2015-Apr-26 16:33N 01°23' E 104°01'6 5.9
2015-Apr-26 15:33N 01°17' E 104°01'1110.5
2015-Apr-26 14:29N 01°12' E 103°51'3 2.3
2015-Apr-26 13:19N 01°13' E 103°49'0 0.2
2015-Apr-26 12:22N 01°13' E 103°49'0 0.0
2015-Apr-26 11:28N 01°13' E 103°49'0 0.1
2015-Apr-26 10:19N 01°13' E 103°49'0 0.1
2015-Apr-26 09:22N 01°13' E 103°49'0 0.1
2015-Apr-26 08:28N 01°13' E 103°49'0 0.1
2015-Apr-26 07:28N 01°13' E 103°49'0 0.1
2015-Apr-26 05:28N 01°13' E 103°49'0 0.0
2015-Apr-26 04:22N 01°13' E 103°49'4 4.1
2015-Apr-26 03:29N 01°13' E 103°52'9 9.4
2015-Apr-26 02:33N 01°16' E 104°01'10 9.7
2015-Apr-26 01:33N 01°17' E 104°10'  

Dump ship's entire track history